Time;durP1;ratioP1;P1;durP2;ratioP2;P2;SDS_P1;SDS_P2;PMS_P1;PMS_P2;Temp;Humidity;BMP_temperature;BMP_pressure;BME280_temperature;BME280_humidity;BME280_pressure;Samples;Min_cycle;Max_cycle;Signal;HPM_P1;HPM_P2
2023/09/10 00:00:54;;;;;;;11.00;9.90;;;;;;;14.60;97.15;97775.51;110200;1241;58931;-65
2023/09/10 00:03:46;;;;;;;12.20;11.00;;;;;;;14.56;95.72;97773.75;110191;1243;70352;-65
2023/09/10 00:06:17;;;;;;;11.40;10.20;;;;;;;14.52;94.20;97778.76;110230;1241;68429;-64
2023/09/10 00:08:48;;;;;;;11.20;9.80;;;;;;;14.50;94.62;97780.70;110258;1241;69638;-65
2023/09/10 00:11:19;;;;;;;11.50;10.30;;;;;;;14.48;94.75;97782.09;110209;1241;59294;-64
2023/09/10 00:13:51;;;;;;;11.00;9.90;;;;;;;14.45;93.75;97785.24;110228;1241;58899;-66
2023/09/10 00:16:21;;;;;;;11.50;10.30;;;;;;;14.42;93.28;97785.52;110199;1241;70461;-65
2023/09/10 00:18:51;;;;;;;10.90;9.70;;;;;;;14.39;93.50;97780.50;110245;1243;68393;-65
2023/09/10 00:21:22;;;;;;;11.20;10.10;;;;;;;14.36;93.75;97777.45;110228;1242;69265;-65
2023/09/10 00:23:53;;;;;;;13.70;11.40;;;;;;;14.33;95.74;97777.51;110277;1241;58915;-66
2023/09/10 00:26:26;;;;;;;12.80;11.30;;;;;;;14.31;96.55;97781.52;110331;1241;58969;-66
2023/09/10 00:28:58;;;;;;;11.30;10.10;;;;;;;14.30;97.23;97777.45;110380;1242;69900;-65
2023/09/10 00:31:30;;;;;;;10.20;9.20;;;;;;;14.28;99.00;97777.38;110234;1242;68358;-65
2023/09/10 00:34:02;;;;;;;11.40;10.30;;;;;;;14.28;100.00;97779.31;110230;1242;69283;-65
2023/09/10 00:36:35;;;;;;;10.00;9.00;;;;;;;14.25;100.00;97778.10;110238;1240;58811;-66
2023/09/10 00:39:07;;;;;;;10.00;8.90;;;;;;;14.25;100.00;97776.60;110316;1242;58871;-66
2023/09/10 00:41:39;;;;;;;10.70;9.50;;;;;;;14.26;100.00;97776.52;110258;1242;69719;-66
2023/09/10 00:44:13;;;;;;;10.60;9.40;;;;;;;14.26;97.73;97772.12;110176;1244;69050;-66
2023/09/10 00:46:47;;;;;;;12.20;11.00;;;;;;;14.29;97.34;97771.90;110258;1242;69167;-67
2023/09/10 00:49:22;;;;;;;12.10;10.70;;;;;;;14.30;97.98;97771.44;110253;1242;58977;-65
2023/09/10 00:51:53;;;;;;;12.20;9.70;;;;;;;14.31;98.05;97767.54;110261;1242;58883;-66
2023/09/10 00:54:25;;;;;;;9.50;8.60;;;;;;;14.31;99.09;97769.94;110208;1240;70566;-66
2023/09/10 00:57:03;;;;;;;10.20;9.20;;;;;;;14.31;100.00;97772.98;110250;1243;68833;-66
2023/09/10 00:59:38;;;;;;;10.30;9.20;;;;;;;14.29;100.00;97771.70;110165;1241;69364;-65
2023/09/10 01:02:13;;;;;;;9.90;9.00;;;;;;;14.26;100.00;97771.20;110086;1245;58924;-64
2023/09/10 01:04:47;;;;;;;9.40;8.40;;;;;;;14.24;100.00;97767.50;110112;1241;58893;-67
2023/09/10 01:07:17;;;;;;;9.80;8.80;;;;;;;14.24;100.00;97767.73;110123;1241;70542;-65
2023/09/10 01:09:49;;;;;;;10.10;9.10;;;;;;;14.23;99.11;97771.67;110136;1240;69450;-65
2023/09/10 01:12:32;;;;;;;10.20;9.20;;;;;;;14.23;99.45;97772.01;110167;1244;69277;-65
2023/09/10 01:15:17;;;;;;;10.30;9.30;;;;;;;14.22;100.00;97772.58;110122;1244;58946;-65
2023/09/10 01:18:33;;;;;;;10.30;8.90;;;;;;;14.22;100.00;97772.38;110277;1242;58868;-65
2023/09/10 01:21:16;;;;;;;;;;;;;;;14.20;100.00;97774.38;109576;1248;70482;-66
2023/09/10 01:23:49;;;;;;;;;;;;;;;14.18;100.00;97776.23;109609;1250;69172;-65
2023/09/10 01:26:19;;;;;;;9.30;8.30;;;;;;;14.18;100.00;97778.58;109995;1241;69820;-66
2023/09/10 01:28:50;;;;;;;10.00;9.00;;;;;;;14.18;98.82;97779.06;110281;1242;58943;-65
2023/09/10 01:31:21;;;;;;;10.00;8.90;;;;;;;14.19;100.00;97784.58;110257;1242;58951;-64
2023/09/10 01:33:57;;;;;;;9.80;8.30;;;;;;;14.19;100.00;97787.37;110253;1242;71247;-66
2023/09/10 01:36:38;;;;;;;9.00;8.10;;;;;;;14.18;100.00;97785.36;110254;1242;69293;-66
2023/09/10 01:39:21;;;;;;;8.40;7.60;;;;;;;14.17;100.00;97786.52;110232;1242;69299;-64
2023/09/10 01:41:53;;;;;;;9.00;8.10;;;;;;;14.17;100.00;97782.50;110276;1242;58937;-64
2023/09/10 01:44:25;;;;;;;8.50;7.50;;;;;;;14.18;100.00;97785.33;110282;1242;58904;-64
2023/09/10 01:46:55;;;;;;;8.70;7.90;;;;;;;14.20;100.00;97785.75;110212;1240;70509;-65
2023/09/10 01:49:26;;;;;;;8.50;7.60;;;;;;;14.21;100.00;97782.87;110151;1244;68400;-65
2023/09/10 01:51:58;;;;;;;10.10;8.10;;;;;;;14.21;100.00;97783.90;110207;1242;67384;-64
2023/09/10 01:54:28;;;;;;;9.50;8.50;;;;;;;14.20;100.00;97783.45;110288;1242;58953;-66
2023/09/10 01:56:59;;;;;;;8.80;7.90;;;;;;;14.18;100.00;97786.27;110357;1240;58941;-66
2023/09/10 01:59:30;;;;;;;9.30;8.30;;;;;;;14.14;100.00;97784.64;110210;1244;69663;-66
2023/09/10 02:02:03;;;;;;;8.90;8.00;;;;;;;14.11;100.00;97781.60;110134;1245;69180;-67
2023/09/10 02:04:34;;;;;;;9.70;8.70;;;;;;;14.09;100.00;97783.19;110140;1244;69182;-68
2023/09/10 02:07:06;;;;;;;9.40;7.80;;;;;;;14.06;100.00;97782.91;110342;1242;58857;-65
2023/09/10 02:09:38;;;;;;;8.90;8.00;;;;;;;14.04;98.40;97781.46;110243;1244;58884;-67
2023/09/10 02:12:09;;;;;;;8.40;7.60;;;;;;;14.02;100.00;97785.80;110293;1242;70629;-66
2023/09/10 02:14:40;;;;;;;10.20;8.50;;;;;;;13.99;100.00;97784.80;110228;1241;69310;-65
2023/09/10 02:17:10;;;;;;;10.10;9.00;;;;;;;13.97;100.00;97784.15;110148;1241;69183;-67
2023/09/10 02:19:41;;;;;;;9.30;8.20;;;;;;;13.93;100.00;97784.91;110158;1241;58966;-65
2023/09/10 02:22:14;;;;;;;9.50;8.50;;;;;;;13.93;99.91;97784.99;110310;1242;58878;-66
2023/09/10 02:24:50;;;;;;;10.00;8.80;;;;;;;13.93;100.00;97786.33;110262;1241;70605;-66
2023/09/10 02:27:23;;;;;;;8.70;7.80;;;;;;;13.95;100.00;97785.71;110329;1241;68516;-66
2023/09/10 02:29:56;;;;;;;12.00;10.50;;;;;;;13.96;100.00;97786.08;110282;1242;69299;-66
2023/09/10 02:32:27;;;;;;;10.40;9.30;;;;;;;13.98;100.00;97785.65;110137;1241;58967;-66
2023/09/10 02:34:59;;;;;;;9.90;8.90;;;;;;;13.96;100.00;97785.07;110158;1243;58868;-66
2023/09/10 02:37:33;;;;;;;9.50;8.50;;;;;;;13.91;100.00;97780.57;110196;1243;70595;-66
2023/09/10 02:40:07;;;;;;;10.30;9.30;;;;;;;13.84;100.00;97784.29;110256;1242;68475;-66
2023/09/10 02:42:40;;;;;;;10.60;9.60;;;;;;;13.80;100.00;97783.05;109942;1245;69207;-67
2023/09/10 02:45:14;;;;;;;9.60;8.50;;;;;;;13.77;100.00;97779.44;109887;1245;58885;-66
2023/09/10 02:47:46;;;;;;;9.60;8.50;;;;;;;13.75;100.00;97777.26;110098;1243;58848;-66
2023/09/10 02:50:18;;;;;;;9.40;8.40;;;;;;;13.74;99.87;97779.59;110260;1240;70598;-66
2023/09/10 02:52:52;;;;;;;12.90;11.30;;;;;;;13.70;100.00;97780.69;110146;1241;68298;-65
2023/09/10 02:55:23;;;;;;;11.80;10.60;;;;;;;13.58;100.00;97781.27;110218;1242;69679;-65
2023/09/10 02:57:55;;;;;;;10.60;9.50;;;;;;;13.43;100.00;97780.17;110124;1240;58947;-67
2023/09/10 03:00:26;;;;;;;11.20;10.00;;;;;;;13.34;100.00;97773.58;110229;1241;58937;-67
2023/09/10 03:02:57;;;;;;;10.80;8.90;;;;;;;13.27;100.00;97774.41;110202;1242;69816;-66
2023/09/10 03:05:35;;;;;;;10.30;8.90;;;;;;;13.20;100.00;97776.14;110262;1240;68413;-65
2023/09/10 03:08:07;;;;;;;11.10;9.90;;;;;;;13.15;100.00;97772.35;110179;1241;68396;-65
2023/09/10 03:10:38;;;;;;;11.00;9.80;;;;;;;13.10;100.00;97776.73;110273;1242;58984;-65
2023/09/10 03:13:11;;;;;;;11.70;10.30;;;;;;;13.07;100.00;97775.29;110262;1242;58875;-67
2023/09/10 03:15:48;;;;;;;10.90;9.80;;;;;;;13.04;100.00;97778.63;110225;1242;70637;-67
2023/09/10 03:18:20;;;;;;;10.50;9.10;;;;;;;13.04;100.00;97781.63;110190;1240;69391;-67
2023/09/10 03:20:53;;;;;;;10.10;9.10;;;;;;;13.03;100.00;97784.30;110089;1244;68771;-66
2023/09/10 03:23:25;;;;;;;11.10;9.80;;;;;;;13.03;100.00;97785.02;110133;1241;58929;-67
2023/09/10 03:25:56;;;;;;;9.90;8.90;;;;;;;13.03;100.00;97787.96;110169;1241;58884;-67
2023/09/10 03:28:27;;;;;;;8.70;7.80;;;;;;;13.03;100.00;97786.92;110241;1242;70604;-67
2023/09/10 03:30:58;;;;;;;10.00;9.00;;;;;;;13.05;100.00;97789.09;110129;1244;69153;-65
2023/09/10 03:33:29;;;;;;;9.10;8.10;;;;;;;13.06;100.00;97790.02;110096;1244;69113;-65
2023/09/10 03:36:00;;;;;;;9.20;8.00;;;;;;;13.05;100.00;97789.25;110084;1241;58976;-65
2023/09/10 03:38:31;;;;;;;8.50;7.70;;;;;;;13.03;100.00;97789.04;110118;1245;58894;-67
2023/09/10 03:41:01;;;;;;;9.80;8.80;;;;;;;13.02;100.00;97789.66;110110;1245;71414;-67
2023/09/10 03:43:33;;;;;;;11.10;9.90;;;;;;;12.98;100.00;97788.68;110187;1244;69300;-67
2023/09/10 03:46:07;;;;;;;14.40;11.30;;;;;;;12.94;100.00;97790.75;110174;1244;69304;-66
2023/09/10 03:48:38;;;;;;;21.50;14.20;;;;;;;12.89;100.00;97789.55;110192;1245;58841;-65
2023/09/10 03:51:10;;;;;;;39.10;24.00;;;;;;;12.85;100.00;97785.73;110172;1244;58841;-67
2023/09/10 03:53:41;;;;;;;57.60;28.50;;;;;;;12.79;100.00;97789.51;110146;1241;70420;-66
2023/09/10 03:56:11;;;;;;;44.20;26.90;;;;;;;12.73;100.00;97788.48;110148;1241;69363;-65
2023/09/10 03:58:41;;;;;;;35.90;21.50;;;;;;;12.70;100.00;97786.27;110189;1242;68652;-65
2023/09/10 04:01:11;;;;;;;38.90;24.00;;;;;;;12.68;100.00;97788.67;110151;1244;58952;-65
2023/09/10 04:03:43;;;;;;;36.30;24.60;;;;;;;12.67;100.00;97782.48;110093;1245;58895;-66
2023/09/10 04:06:12;;;;;;;30.30;21.70;;;;;;;12.67;100.00;97782.34;110133;1244;71473;-66
2023/09/10 04:08:43;;;;;;;24.80;18.50;;;;;;;12.68;100.00;97785.39;110205;1244;68512;-66
2023/09/10 04:11:12;;;;;;;23.10;16.50;;;;;;;12.70;100.00;97787.02;110155;1241;70030;-67
2023/09/10 04:13:42;;;;;;;18.50;13.60;;;;;;;12.72;100.00;97787.52;110165;1241;58953;-66
2023/09/10 04:16:13;;;;;;;17.40;13.30;;;;;;;12.75;100.00;97789.91;110132;1245;58837;-66
2023/09/10 04:18:44;;;;;;;14.80;11.90;;;;;;;12.81;100.00;97792.30;110119;1245;70411;-66
2023/09/10 04:21:16;;;;;;;14.50;11.80;;;;;;;12.88;100.00;97790.55;110145;1245;69150;-66
2023/09/10 04:23:47;;;;;;;14.40;11.40;;;;;;;12.93;100.00;97784.90;110164;1241;68515;-65
2023/09/10 04:26:17;;;;;;;13.40;10.00;;;;;;;12.98;100.00;97787.14;110112;1242;58964;-67
2023/09/10 04:28:46;;;;;;;12.60;10.90;;;;;;;13.10;100.00;97783.61;110138;1244;58853;-65
2023/09/10 04:31:17;;;;;;;10.90;9.40;;;;;;;13.24;100.00;97783.40;110158;1243;71203;-65
2023/09/10 04:33:46;;;;;;;11.90;10.00;;;;;;;13.42;100.00;97788.28;110100;1244;69215;-67
2023/09/10 04:36:16;;;;;;;;;;;;;;;13.61;100.00;97788.90;110257;1242;69930;-65
2023/09/10 04:38:46;;;;;;;9.60;8.00;;;;;;;13.77;100.00;97791.16;110207;1242;58940;-66
2023/09/10 04:41:17;;;;;;;9.00;7.60;;;;;;;13.92;100.00;97792.06;110108;1240;58916;-66
2023/09/10 04:43:47;;;;;;;9.70;8.70;;;;;;;14.06;100.00;97790.42;110086;1244;70471;-65
2023/09/10 04:46:16;;;;;;;9.50;7.90;;;;;;;14.18;100.00;97795.02;110122;1241;69693;-65
2023/09/10 04:48:46;;;;;;;11.40;9.60;;;;;;;14.30;100.00;97792.00;110156;1242;68589;-66
2023/09/10 04:51:16;;;;;;;10.60;8.60;;;;;;;14.41;100.00;97792.30;110195;1242;58919;-67
2023/09/10 04:53:46;;;;;;;13.70;10.20;;;;;;;14.51;100.00;97794.95;110311;1242;58870;-66
2023/09/10 04:56:15;;;;;;;18.00;11.40;;;;;;;14.60;100.00;97792.51;110271;1240;71160;-66
2023/09/10 04:58:45;;;;;;;;;;;;;;;14.65;100.00;97792.94;110171;1243;69821;-66
2023/09/10 05:01:15;;;;;;;17.20;12.40;;;;;;;14.72;100.00;97791.41;110117;1244;68542;-65
2023/09/10 05:03:45;;;;;;;20.80;14.70;;;;;;;14.86;100.00;97794.71;110070;1244;58879;-67
2023/09/10 05:06:15;;;;;;;18.10;13.20;;;;;;;15.03;100.00;97792.44;110059;1244;59272;-66
2023/09/10 05:08:45;;;;;;;;;;;;;;;15.26;100.00;97790.92;110133;1241;71238;-65
2023/09/10 05:11:17;;;;;;;15.80;13.20;;;;;;;15.53;100.00;97797.02;109894;1245;69210;-66
2023/09/10 05:13:48;;;;;;;16.00;11.70;;;;;;;15.84;100.00;97795.92;110113;1241;69308;-65
2023/09/10 05:16:18;;;;;;;14.70;11.20;;;;;;;16.17;100.00;97798.05;110160;1243;58910;-65
2023/09/10 05:18:48;;;;;;;15.80;11.40;;;;;;;16.50;100.00;97802.84;109869;1241;58908;-67
2023/09/10 05:21:20;;;;;;;12.60;10.00;;;;;;;16.81;99.81;97800.77;110127;1241;70464;-65
2023/09/10 05:23:49;;;;;;;12.60;10.10;;;;;;;17.13;98.91;97803.22;110134;1241;68330;-66
2023/09/10 05:26:21;;;;;;;12.20;10.80;;;;;;;17.40;94.94;97801.05;110161;1244;67533;-66
2023/09/10 05:28:51;;;;;;;12.90;10.30;;;;;;;17.60;93.04;97805.13;110145;1244;58870;-66
2023/09/10 05:31:21;;;;;;;13.50;10.50;;;;;;;17.80;93.03;97807.71;110086;1241;58927;-66
2023/09/10 05:33:50;;;;;;;12.00;9.50;;;;;;;17.85;90.40;97806.12;110136;1241;70538;-65
2023/09/10 05:36:20;;;;;;;11.50;9.50;;;;;;;17.95;89.46;97812.10;110153;1244;69235;-67
2023/09/10 05:38:52;;;;;;;11.30;9.10;;;;;;;18.11;90.60;97816.15;110123;1244;69862;-66
2023/09/10 05:41:21;;;;;;;9.30;8.30;;;;;;;18.28;87.87;97817.27;109855;1244;59282;-66
2023/09/10 05:43:50;;;;;;;10.00;8.50;;;;;;;18.50;86.31;97821.65;110172;1243;58875;-65
2023/09/10 05:46:20;;;;;;;;;;;;;;;18.74;84.74;97824.92;110147;1245;70169;-68
2023/09/10 05:48:49;;;;;;;8.60;7.70;;;;;;;19.09;83.88;97824.60;110115;1241;69888;-66
2023/09/10 05:51:19;;;;;;;8.80;7.90;;;;;;;19.40;81.26;97820.04;110144;1244;69628;-66
2023/09/10 05:53:48;;;;;;;9.90;8.40;;;;;;;19.83;82.93;97817.38;109846;1245;58942;-68
2023/09/10 05:56:17;;;;;;;9.00;8.10;;;;;;;20.17;81.61;97819.35;109867;1244;58920;-67
2023/09/10 05:58:47;;;;;;;7.40;6.60;;;;;;;20.46;80.67;97817.62;110189;1241;71164;-68
2023/09/10 06:01:15;;;;;;;7.60;6.50;;;;;;;20.83;79.57;97817.17;110151;1243;69077;-65
2023/09/10 06:03:45;;;;;;;8.00;7.20;;;;;;;21.13;74.82;97812.00;110156;1241;69880;-65
2023/09/10 06:06:14;;;;;;;6.50;5.90;;;;;;;21.41;78.39;97818.19;110188;1241;58947;-67
2023/09/10 06:08:43;;;;;;;6.60;5.90;;;;;;;21.79;73.06;97814.00;110133;1244;58901;-67
2023/09/10 06:11:13;;;;;;;7.40;6.50;;;;;;;22.10;67.91;97818.17;110159;1241;70604;-67
2023/09/10 06:13:42;;;;;;;6.40;5.70;;;;;;;22.37;70.04;97819.08;110134;1248;69248;-67
2023/09/10 06:16:12;;;;;;;6.70;5.70;;;;;;;22.55;74.29;97823.59;110138;1241;69260;-65
2023/09/10 06:18:41;;;;;;;6.70;5.70;;;;;;;22.70;68.15;97823.60;110127;1245;59283;-69
2023/09/10 06:21:10;;;;;;;7.20;5.80;;;;;;;22.75;67.95;97823.02;110139;1244;58892;-66
2023/09/10 06:23:38;;;;;;;6.00;5.20;;;;;;;22.97;65.74;97826.31;110125;1243;71192;-65
2023/09/10 06:26:08;;;;;;;6.70;5.30;;;;;;;23.20;65.21;97823.02;110146;1244;68729;-65
2023/09/10 06:28:38;;;;;;;6.20;4.60;;;;;;;23.28;61.69;97823.37;110086;1244;69886;-65
2023/09/10 06:31:08;;;;;;;6.80;4.90;;;;;;;23.37;63.83;97824.91;109853;1241;58968;-64
2023/09/10 06:33:37;;;;;;;6.90;5.10;;;;;;;23.28;57.38;97821.45;110124;1245;58870;-67
2023/09/10 06:36:06;;;;;;;6.50;5.10;;;;;;;23.32;60.57;97824.09;109940;1244;69860;-64
2023/09/10 06:38:35;;;;;;;5.30;4.80;;;;;;;23.20;58.85;97823.00;110147;1244;69045;-65
2023/09/10 06:41:05;;;;;;;9.30;4.60;;;;;;;23.02;57.98;97821.98;110097;1243;68538;-64
2023/09/10 06:43:34;;;;;;;6.20;5.30;;;;;;;22.97;58.86;97827.56;109863;1244;58989;-64
2023/09/10 06:46:10;;;;;;;6.10;5.10;;;;;;;23.02;59.30;97823.29;110131;1244;58893;-64
2023/09/10 06:48:39;;;;;;;7.10;5.20;;;;;;;23.19;57.11;97824.95;110090;1245;69811;-65
2023/09/10 06:51:09;;;;;;;7.30;5.80;;;;;;;23.52;58.48;97823.33;110149;1242;69127;-64
2023/09/10 06:53:38;;;;;;;;;;;;;;;23.84;57.69;97821.85;110149;1244;70241;-65
2023/09/10 06:56:06;;;;;;;7.50;5.50;;;;;;;24.25;57.33;97823.58;110130;1244;58963;-64
2023/09/10 06:58:36;;;;;;;6.90;5.50;;;;;;;24.64;53.22;97825.35;110096;1244;58828;-66
2023/09/10 07:01:06;;;;;;;7.00;5.30;;;;;;;24.89;52.64;97829.56;110128;1241;70554;-68
2023/09/10 07:03:35;;;;;;;5.10;4.60;;;;;;;25.09;52.57;97831.52;110133;1244;69214;-66
2023/09/10 07:06:04;;;;;;;;;;;;;;;25.27;50.45;97830.35;110140;1245;69871;-68
2023/09/10 07:08:36;;;;;;;6.70;5.50;;;;;;;25.54;52.06;97828.32;110102;1244;58960;-69
2023/09/10 07:11:06;;;;;;;7.50;5.00;;;;;;;25.87;50.48;97824.12;110104;1244;59387;-67
2023/09/10 07:13:38;;;;;;;7.70;5.10;;;;;;;25.87;47.44;97823.93;110162;1244;70578;-68
2023/09/10 07:16:07;;;;;;;6.40;5.00;;;;;;;26.11;48.64;97824.71;110136;1244;69822;-67
2023/09/10 07:18:36;;;;;;;;;;;;;;;26.47;48.56;97826.40;110210;1241;68358;-69
2023/09/10 07:21:06;;;;;;;5.90;3.90;;;;;;;26.78;49.66;97824.09;110162;1244;58925;-69
2023/09/10 07:23:35;;;;;;;6.20;3.70;;;;;;;26.96;46.29;97823.49;110200;1244;58952;-68
2023/09/10 07:26:04;;;;;;;5.40;3.60;;;;;;;27.04;47.73;97818.72;110206;1241;71167;-67
2023/09/10 07:28:33;;;;;;;5.20;3.40;;;;;;;27.16;46.01;97821.34;110154;1245;69828;-65
2023/09/10 07:31:02;;;;;;;4.80;3.50;;;;;;;27.31;45.30;97811.75;110155;1241;69284;-68
2023/09/10 07:33:31;;;;;;;5.70;3.40;;;;;;;27.32;44.24;97815.71;110180;1244;58887;-67
2023/09/10 07:36:00;;;;;;;5.10;3.70;;;;;;;27.08;41.90;97813.64;110206;1242;58876;-68
2023/09/10 07:38:31;;;;;;;4.90;2.80;;;;;;;27.22;43.06;97815.63;109829;1242;541824;-67
2023/09/10 07:41:00;;;;;;;5.00;3.10;;;;;;;27.38;43.67;97812.56;110344;1242;69655;-69
2023/09/10 07:43:29;;;;;;;5.20;3.70;;;;;;;27.58;42.12;97813.27;110263;1242;70190;-68
2023/09/10 07:58:20;;;;;;;4.60;2.70;;;;;;;29.22;38.02;97809.58;107200;1270;608932;-67
2023/09/10 08:00:56;;;;;;;4.00;3.10;;;;;;;29.41;36.39;97811.52;108765;1257;383956;-67
2023/09/10 08:03:26;;;;;;;5.00;2.80;;;;;;;29.29;36.67;97813.34;109269;1254;57715;-65
2023/09/10 08:05:56;;;;;;;5.60;2.90;;;;;;;29.29;36.94;97810.77;109174;1254;69096;-66
2023/09/10 08:08:25;;;;;;;4.10;2.90;;;;;;;29.30;36.70;97813.65;109149;1257;69719;-66
2023/09/10 08:10:54;;;;;;;6.30;3.20;;;;;;;29.30;36.72;97812.30;109133;1256;70327;-65
2023/09/10 08:13:23;;;;;;;3.80;2.60;;;;;;;29.21;35.96;97810.52;109208;1253;57645;-67
2023/09/10 08:15:52;;;;;;;;;;;;;;;29.30;36.80;97812.25;109203;1253;57718;-68
2023/09/10 08:18:21;;;;;;;5.50;3.00;;;;;;;29.42;36.42;97808.90;109222;1255;68941;-67
2023/09/10 08:20:50;;;;;;;4.70;2.90;;;;;;;29.46;36.83;97811.77;109809;1247;69386;-67
2023/09/10 08:23:19;;;;;;;4.00;2.80;;;;;;;29.54;36.10;97805.52;109806;1248;69262;-67
2023/09/10 08:25:52;;;;;;;;;;;;;;;29.80;36.27;97805.05;109749;1248;58092;-67
2023/09/10 08:28:22;;;;;;;4.40;2.70;;;;;;;29.93;36.16;97802.20;109774;1248;58095;-67
2023/09/10 08:30:53;;;;;;;4.10;2.70;;;;;;;30.38;36.01;97805.64;109766;1247;70453;-68
2023/09/10 08:33:21;;;;;;;4.00;2.90;;;;;;;30.74;35.73;97800.79;109832;1247;69789;-66
2023/09/10 08:35:52;;;;;;;4.30;2.80;;;;;;;31.05;35.41;97796.92;109780;1247;68907;-66
2023/09/10 08:38:22;;;;;;;3.40;2.60;;;;;;;31.33;34.81;97799.59;110137;1241;58087;-66
2023/09/10 08:41:00;;;;;;;5.50;3.40;;;;;;;31.55;34.58;97798.04;110184;1243;58131;-66
2023/09/10 08:43:39;;;;;;;4.40;2.90;;;;;;;31.43;33.63;97798.70;110167;1244;69836;-66
2023/09/10 08:46:10;;;;;;;4.20;2.90;;;;;;;31.32;33.22;97793.69;110173;1245;69164;-67
2023/09/10 08:48:41;;;;;;;4.10;3.70;;;;;;;31.36;33.90;97794.04;110151;1241;69857;-66
2023/09/10 08:51:12;;;;;;;5.20;3.50;;;;;;;31.56;33.68;97788.48;110161;1243;58101;-66
2023/09/10 08:53:43;;;;;;;4.50;3.10;;;;;;;31.75;33.81;97789.92;110203;1241;58147;-66
2023/09/10 08:56:13;;;;;;;6.30;3.00;;;;;;;31.63;33.24;97790.54;110171;1241;68903;-66
2023/09/10 08:58:43;;;;;;;5.50;2.70;;;;;;;31.78;33.87;97790.07;110164;1244;69735;-67
2023/09/10 09:01:14;;;;;;;4.90;2.70;;;;;;;32.20;33.18;97791.20;110159;1241;67354;-67
2023/09/10 09:03:46;;;;;;;4.90;3.10;;;;;;;32.31;33.00;97790.70;110184;1244;58220;-66
2023/09/10 09:06:15;;;;;;;4.10;2.60;;;;;;;32.49;32.23;97790.45;110189;1241;58102;-67
2023/09/10 09:08:51;;;;;;;4.00;3.20;;;;;;;32.74;31.54;97791.67;110123;1243;70452;-66
2023/09/10 09:11:27;;;;;;;4.20;2.80;;;;;;;33.02;31.70;97791.33;110182;1243;69233;-67
2023/09/10 09:13:57;;;;;;;3.80;2.40;;;;;;;33.31;31.29;97789.80;110150;1243;70187;-66
2023/09/10 09:16:27;;;;;;;4.00;2.60;;;;;;;33.27;31.19;97788.00;110182;1242;58142;-65
2023/09/10 09:18:57;;;;;;;5.50;3.00;;;;;;;33.55;30.72;97780.55;110209;1244;58140;-67
2023/09/10 09:21:29;;;;;;;4.00;2.50;;;;;;;33.52;29.57;97778.55;110170;1241;69818;-66
2023/09/10 09:24:00;;;;;;;5.30;2.90;;;;;;;33.71;29.82;97779.75;110198;1241;69146;-67
2023/09/10 09:26:30;;;;;;;2.80;2.30;;;;;;;33.37;29.55;97779.48;110147;1241;69258;-67
2023/09/10 09:29:00;;;;;;;4.90;2.90;;;;;;;33.33;29.30;97775.46;110146;1244;58096;-67
2023/09/10 09:31:29;;;;;;;4.60;2.70;;;;;;;33.34;29.27;97772.99;110182;1241;58135;-67
2023/09/10 09:33:58;;;;;;;4.00;2.90;;;;;;;33.17;29.45;97777.17;110168;1241;70285;-67
2023/09/10 09:36:28;;;;;;;5.90;2.80;;;;;;;33.13;29.77;97770.44;110152;1244;70297;-68
2023/09/10 09:38:57;;;;;;;7.20;3.50;;;;;;;33.45;29.25;97762.97;110169;1244;70303;-67
2023/09/10 09:41:26;;;;;;;4.80;2.80;;;;;;;33.78;29.24;97759.56;110171;1243;58140;-67
2023/09/10 09:43:57;;;;;;;7.70;4.00;;;;;;;33.30;29.38;97758.73;110223;1241;58514;-67
2023/09/10 09:46:32;;;;;;;4.60;2.80;;;;;;;33.43;28.89;97756.02;110023;1246;69102;-67
2023/09/10 09:49:02;;;;;;;4.10;2.60;;;;;;;33.56;29.43;97758.45;110228;1243;69225;-67
2023/09/10 09:51:31;;;;;;;4.60;2.90;;;;;;;33.67;28.70;97755.68;110169;1244;69866;-67
2023/09/10 09:54:01;;;;;;;3.80;2.70;;;;;;;33.35;29.24;97754.69;110118;1244;58109;-67
2023/09/10 09:56:29;;;;;;;4.70;2.80;;;;;;;33.37;29.15;97755.15;110181;1243;58072;-66
2023/09/10 09:58:58;;;;;;;5.20;3.00;;;;;;;33.84;28.33;97749.66;110203;1244;69314;-68
2023/09/10 10:01:27;;;;;;;4.00;3.00;;;;;;;34.15;28.43;97751.00;110181;1241;69212;-67
2023/09/10 10:03:57;;;;;;;4.80;2.80;;;;;;;34.17;27.50;97747.17;110144;1251;69729;-68
2023/09/10 10:06:27;;;;;;;5.20;3.20;;;;;;;34.45;27.52;97749.84;110150;1244;58085;-67
2023/09/10 10:09:01;;;;;;;4.70;3.00;;;;;;;34.62;27.79;97749.42;110215;1243;58078;-67
2023/09/10 10:11:32;;;;;;;5.00;3.30;;;;;;;34.08;28.21;97748.28;110204;1244;69862;-67
2023/09/10 10:14:02;;;;;;;4.30;2.50;;;;;;;34.08;27.93;97744.00;110151;1241;69247;-66
2023/09/10 10:16:32;;;;;;;3.70;2.90;;;;;;;33.79;29.36;97743.14;110192;1245;69127;-67
2023/09/10 10:19:03;;;;;;;3.80;2.90;;;;;;;33.45;30.30;97742.27;110094;1245;58121;-69
2023/09/10 10:21:32;;;;;;;4.10;2.50;;;;;;;33.19;30.73;97743.27;110214;1243;58073;-67
2023/09/10 10:24:02;;;;;;;5.50;3.40;;;;;;;33.53;29.56;97739.39;110210;1244;70506;-68
2023/09/10 10:26:34;;;;;;;4.50;3.20;;;;;;;33.20;29.04;97740.95;110186;1245;68531;-66
2023/09/10 10:29:03;;;;;;;5.30;3.00;;;;;;;33.41;28.98;97737.92;110179;1248;69811;-66
2023/09/10 10:31:37;;;;;;;3.50;2.80;;;;;;;33.87;28.59;97734.97;110120;1244;58090;-67
2023/09/10 10:34:15;;;;;;;4.50;2.70;;;;;;;34.23;28.33;97737.87;110206;1244;58137;-66
2023/09/10 10:37:08;;;;;;;6.80;3.30;;;;;;;33.90;28.15;97738.19;110157;1244;68941;-67
2023/09/10 10:39:41;;;;;;;4.20;3.00;;;;;;;33.76;28.40;97732.91;110160;1241;69423;-67
2023/09/10 10:42:15;;;;;;;4.50;2.60;;;;;;;33.98;28.88;97728.34;110165;1245;69248;-67
2023/09/10 10:44:43;;;;;;;3.80;2.70;;;;;;;34.64;27.82;97724.73;110205;1241;58151;-67
2023/09/10 10:47:22;;;;;;;4.80;3.00;;;;;;;35.28;26.90;97721.55;110165;1243;58025;-67
2023/09/10 10:49:53;;;;;;;3.80;3.00;;;;;;;36.04;26.61;97717.13;110146;1241;69768;-67
2023/09/10 10:52:30;;;;;;;5.30;3.10;;;;;;;36.61;25.91;97717.89;110113;1244;70050;-66
2023/09/10 10:55:00;;;;;;;3.60;2.70;;;;;;;36.67;25.47;97717.52;110171;1241;69887;-67
2023/09/10 10:57:30;;;;;;;4.80;2.70;;;;;;;36.76;25.13;97717.52;110188;1244;58472;-67
2023/09/10 11:00:01;;;;;;;4.80;3.20;;;;;;;36.09;25.15;97712.89;110159;1243;58084;-67
2023/09/10 11:02:31;;;;;;;4.00;3.10;;;;;;;36.18;24.84;97712.64;110189;1241;70548;-67
2023/09/10 11:05:02;;;;;;;3.90;3.30;;;;;;;35.80;25.06;97705.51;110189;1245;69813;-67
2023/09/10 11:07:33;;;;;;;5.60;3.40;;;;;;;35.71;26.11;97707.42;110159;1243;69808;-66
2023/09/10 11:10:29;;;;;;;4.70;3.10;;;;;;;35.75;26.43;97700.83;110139;1241;58094;-67
2023/09/10 11:13:10;;;;;;;3.70;3.00;;;;;;;35.63;26.31;97698.42;110143;1248;58145;-66
2023/09/10 11:16:18;;;;;;;5.40;3.00;;;;;;;35.67;25.88;97700.41;110134;1243;70292;-66
2023/09/10 11:18:47;;;;;;;4.80;3.30;;;;;;;35.21;27.20;97698.52;110218;1244;69830;-67
2023/09/10 11:21:17;;;;;;;4.60;3.20;;;;;;;35.44;25.98;97694.14;110184;1244;69756;-67
2023/09/10 11:23:46;;;;;;;3.80;3.10;;;;;;;36.22;25.61;97692.58;110131;1244;58463;-66
2023/09/10 11:26:16;;;;;;;3.90;2.80;;;;;;;36.58;25.47;97690.33;110174;1241;58218;-67
2023/09/10 11:28:49;;;;;;;4.40;2.70;;;;;;;36.58;25.94;97688.98;110155;1241;70424;-66
2023/09/10 11:31:40;;;;;;;4.60;3.10;;;;;;;36.81;25.35;97685.48;110162;1241;69518;-67
2023/09/10 11:34:15;;;;;;;5.40;3.30;;;;;;;36.99;24.70;97684.05;110141;1241;69912;-67
2023/09/10 11:36:55;;;;;;;3.90;3.30;;;;;;;36.76;25.58;97684.23;110191;1244;58147;-67
2023/09/10 11:39:25;;;;;;;5.40;3.10;;;;;;;37.81;24.81;97679.73;110136;1241;58217;-67
2023/09/10 11:41:56;;;;;;;4.80;2.90;;;;;;;37.77;23.64;97675.00;110109;1241;70347;-66
2023/09/10 11:44:25;;;;;;;6.00;3.10;;;;;;;37.62;23.62;97674.01;110200;1241;68505;-66
2023/09/10 11:46:55;;;;;;;3.50;3.10;;;;;;;37.25;23.98;97675.66;110148;1245;69913;-65
2023/09/10 11:49:25;;;;;;;4.30;3.00;;;;;;;37.53;23.46;97666.25;110145;1241;58096;-66
2023/09/10 11:51:56;;;;;;;3.60;3.10;;;;;;;37.39;23.89;97662.05;110154;1241;58134;-66
2023/09/10 11:54:26;;;;;;;3.50;2.90;;;;;;;37.27;24.66;97657.79;110126;1243;69537;-66